sensor_id;sensor_type;location;lat;lon;timestamp;P1;durP1;ratioP1;P2;durP2;ratioP2
2706;SDS011;7819;48.046;7.642;2022-08-19T00:02:03;10.90;;;9.97;;
2706;SDS011;7819;48.046;7.642;2022-08-19T00:04:30;9.63;;;8.77;;
2706;SDS011;7819;48.046;7.642;2022-08-19T00:06:55;10.67;;;9.73;;
2706;SDS011;7819;48.046;7.642;2022-08-19T00:09:22;11.60;;;10.50;;
2706;SDS011;7819;48.046;7.642;2022-08-19T00:11:48;9.43;;;8.53;;
2706;SDS011;7819;48.046;7.642;2022-08-19T00:14:14;12.00;;;10.87;;
2706;SDS011;7819;48.046;7.642;2022-08-19T00:16:40;10.50;;;9.60;;
2706;SDS011;7819;48.046;7.642;2022-08-19T00:19:06;9.43;;;8.60;;
2706;SDS011;7819;48.046;7.642;2022-08-19T00:21:32;12.30;;;11.00;;
2706;SDS011;7819;48.046;7.642;2022-08-19T00:23:57;10.17;;;9.27;;
2706;SDS011;7819;48.046;7.642;2022-08-19T00:26:23;11.10;;;10.00;;
2706;SDS011;7819;48.046;7.642;2022-08-19T00:28:49;10.67;;;9.60;;
2706;SDS011;7819;48.046;7.642;2022-08-19T00:31:14;10.80;;;9.80;;
2706;SDS011;7819;48.046;7.642;2022-08-19T00:33:41;10.67;;;9.67;;
2706;SDS011;7819;48.046;7.642;2022-08-19T00:36:07;12.03;;;10.67;;
2706;SDS011;7819;48.046;7.642;2022-08-19T00:38:33;12.43;;;11.17;;
2706;SDS011;7819;48.046;7.642;2022-08-19T00:40:59;11.80;;;10.67;;
2706;SDS011;7819;48.046;7.642;2022-08-19T00:43:25;11.20;;;10.13;;
2706;SDS011;7819;48.046;7.642;2022-08-19T00:45:51;11.73;;;10.40;;
2706;SDS011;7819;48.046;7.642;2022-08-19T00:48:17;12.83;;;11.10;;
2706;SDS011;7819;48.046;7.642;2022-08-19T00:50:43;13.17;;;11.87;;
2706;SDS011;7819;48.046;7.642;2022-08-19T00:53:09;12.93;;;11.30;;
2706;SDS011;7819;48.046;7.642;2022-08-19T00:55:34;13.27;;;11.83;;
2706;SDS011;7819;48.046;7.642;2022-08-19T00:58:03;11.17;;;10.10;;
2706;SDS011;7819;48.046;7.642;2022-08-19T01:00:30;11.67;;;10.50;;
2706;SDS011;7819;48.046;7.642;2022-08-19T01:02:55;13.00;;;11.67;;
2706;SDS011;7819;48.046;7.642;2022-08-19T01:05:24;12.87;;;11.07;;
2706;SDS011;7819;48.046;7.642;2022-08-19T01:07:52;12.73;;;11.03;;
2706;SDS011;7819;48.046;7.642;2022-08-19T01:10:19;13.23;;;11.83;;
2706;SDS011;7819;48.046;7.642;2022-08-19T01:12:48;12.83;;;11.30;;
2706;SDS011;7819;48.046;7.642;2022-08-19T01:15:14;11.47;;;10.23;;
2706;SDS011;7819;48.046;7.642;2022-08-19T01:17:40;12.10;;;10.90;;
2706;SDS011;7819;48.046;7.642;2022-08-19T01:20:06;12.90;;;11.60;;
2706;SDS011;7819;48.046;7.642;2022-08-19T01:22:51;14.17;;;12.17;;
2706;SDS011;7819;48.046;7.642;2022-08-19T01:25:17;12.63;;;11.33;;
2706;SDS011;7819;48.046;7.642;2022-08-19T01:27:44;12.70;;;11.40;;
2706;SDS011;7819;48.046;7.642;2022-08-19T01:30:14;14.50;;;10.93;;
2706;SDS011;7819;48.046;7.642;2022-08-19T01:32:40;12.73;;;11.43;;
2706;SDS011;7819;48.046;7.642;2022-08-19T01:35:05;13.43;;;12.13;;
2706;SDS011;7819;48.046;7.642;2022-08-19T01:37:41;12.40;;;11.03;;
2706;SDS011;7819;48.046;7.642;2022-08-19T01:40:06;14.43;;;11.10;;
2706;SDS011;7819;48.046;7.642;2022-08-19T01:42:33;14.27;;;12.93;;
2706;SDS011;7819;48.046;7.642;2022-08-19T01:44:58;13.13;;;11.90;;
2706;SDS011;7819;48.046;7.642;2022-08-19T01:47:23;13.70;;;12.23;;
2706;SDS011;7819;48.046;7.642;2022-08-19T01:49:49;13.67;;;12.17;;
2706;SDS011;7819;48.046;7.642;2022-08-19T01:52:14;13.33;;;12.13;;
2706;SDS011;7819;48.046;7.642;2022-08-19T01:54:39;16.03;;;12.73;;
2706;SDS011;7819;48.046;7.642;2022-08-19T01:57:05;14.20;;;12.70;;
2706;SDS011;7819;48.046;7.642;2022-08-19T01:59:31;14.40;;;12.70;;
2706;SDS011;7819;48.046;7.642;2022-08-19T02:01:57;13.63;;;12.27;;
2706;SDS011;7819;48.046;7.642;2022-08-19T02:04:22;14.50;;;12.30;;
2706;SDS011;7819;48.046;7.642;2022-08-19T02:06:48;15.63;;;13.33;;
2706;SDS011;7819;48.046;7.642;2022-08-19T02:09:13;14.50;;;13.00;;
2706;SDS011;7819;48.046;7.642;2022-08-19T02:11:39;15.93;;;14.33;;
2706;SDS011;7819;48.046;7.642;2022-08-19T02:14:06;15.10;;;12.80;;
2706;SDS011;7819;48.046;7.642;2022-08-19T02:16:32;17.03;;;12.90;;
2706;SDS011;7819;48.046;7.642;2022-08-19T02:18:57;14.37;;;12.60;;
2706;SDS011;7819;48.046;7.642;2022-08-19T02:21:25;16.70;;;13.93;;
2706;SDS011;7819;48.046;7.642;2022-08-19T02:23:51;15.70;;;13.60;;
2706;SDS011;7819;48.046;7.642;2022-08-19T02:26:16;13.20;;;11.87;;
2706;SDS011;7819;48.046;7.642;2022-08-19T02:28:42;15.60;;;13.13;;
2706;SDS011;7819;48.046;7.642;2022-08-19T02:31:14;13.20;;;11.80;;
2706;SDS011;7819;48.046;7.642;2022-08-19T02:33:40;15.00;;;12.53;;
2706;SDS011;7819;48.046;7.642;2022-08-19T02:36:05;13.00;;;11.67;;
2706;SDS011;7819;48.046;7.642;2022-08-19T02:38:31;17.80;;;12.70;;
2706;SDS011;7819;48.046;7.642;2022-08-19T02:41:01;14.23;;;12.73;;
2706;SDS011;7819;48.046;7.642;2022-08-19T02:43:28;14.10;;;12.70;;
2706;SDS011;7819;48.046;7.642;2022-08-19T02:45:53;16.63;;;11.77;;
2706;SDS011;7819;48.046;7.642;2022-08-19T02:48:19;14.30;;;12.87;;
2706;SDS011;7819;48.046;7.642;2022-08-19T02:50:45;12.83;;;11.53;;
2706;SDS011;7819;48.046;7.642;2022-08-19T02:53:10;14.27;;;12.60;;
2706;SDS011;7819;48.046;7.642;2022-08-19T02:55:36;14.67;;;13.20;;
2706;SDS011;7819;48.046;7.642;2022-08-19T02:58:06;13.37;;;11.97;;
2706;SDS011;7819;48.046;7.642;2022-08-19T03:00:31;14.13;;;12.63;;
2706;SDS011;7819;48.046;7.642;2022-08-19T03:02:57;14.57;;;12.17;;
2706;SDS011;7819;48.046;7.642;2022-08-19T03:05:22;14.37;;;12.97;;
2706;SDS011;7819;48.046;7.642;2022-08-19T03:07:47;15.03;;;13.37;;
2706;SDS011;7819;48.046;7.642;2022-08-19T03:10:12;13.17;;;11.83;;
2706;SDS011;7819;48.046;7.642;2022-08-19T03:12:38;14.47;;;12.33;;
2706;SDS011;7819;48.046;7.642;2022-08-19T03:15:04;13.03;;;11.47;;
2706;SDS011;7819;48.046;7.642;2022-08-19T03:17:30;13.67;;;12.23;;
2706;SDS011;7819;48.046;7.642;2022-08-19T03:19:56;15.27;;;13.67;;
2706;SDS011;7819;48.046;7.642;2022-08-19T03:22:21;12.47;;;11.13;;
2706;SDS011;7819;48.046;7.642;2022-08-19T03:24:46;11.50;;;10.30;;
2706;SDS011;7819;48.046;7.642;2022-08-19T03:27:12;13.67;;;10.90;;
2706;SDS011;7819;48.046;7.642;2022-08-19T03:29:37;13.73;;;11.00;;
2706;SDS011;7819;48.046;7.642;2022-08-19T03:32:03;12.83;;;11.63;;
2706;SDS011;7819;48.046;7.642;2022-08-19T03:34:30;11.80;;;9.93;;
2706;SDS011;7819;48.046;7.642;2022-08-19T03:36:56;9.60;;;8.70;;
2706;SDS011;7819;48.046;7.642;2022-08-19T03:39:22;12.20;;;11.00;;
2706;SDS011;7819;48.046;7.642;2022-08-19T03:41:48;12.00;;;10.77;;
2706;SDS011;7819;48.046;7.642;2022-08-19T03:44:16;13.77;;;11.03;;
2706;SDS011;7819;48.046;7.642;2022-08-19T03:46:42;11.30;;;9.10;;
2706;SDS011;7819;48.046;7.642;2022-08-19T03:49:08;11.13;;;9.10;;
2706;SDS011;7819;48.046;7.642;2022-08-19T03:51:34;14.30;;;9.70;;
2706;SDS011;7819;48.046;7.642;2022-08-19T03:54:01;10.00;;;9.00;;
2706;SDS011;7819;48.046;7.642;2022-08-19T03:56:27;10.47;;;9.37;;
2706;SDS011;7819;48.046;7.642;2022-08-19T03:58:53;11.87;;;10.77;;
2706;SDS011;7819;48.046;7.642;2022-08-19T04:01:20;12.00;;;10.77;;
2706;SDS011;7819;48.046;7.642;2022-08-19T04:03:45;10.90;;;9.90;;
2706;SDS011;7819;48.046;7.642;2022-08-19T04:06:18;11.10;;;10.00;;
2706;SDS011;7819;48.046;7.642;2022-08-19T04:08:44;11.27;;;10.03;;
2706;SDS011;7819;48.046;7.642;2022-08-19T04:11:11;11.30;;;10.23;;
2706;SDS011;7819;48.046;7.642;2022-08-19T04:13:36;13.67;;;10.70;;
2706;SDS011;7819;48.046;7.642;2022-08-19T04:16:03;11.73;;;10.53;;
2706;SDS011;7819;48.046;7.642;2022-08-19T04:18:29;12.33;;;11.10;;
2706;SDS011;7819;48.046;7.642;2022-08-19T04:20:55;12.70;;;11.40;;
2706;SDS011;7819;48.046;7.642;2022-08-19T04:23:21;10.80;;;9.67;;
2706;SDS011;7819;48.046;7.642;2022-08-19T04:25:46;12.57;;;10.70;;
2706;SDS011;7819;48.046;7.642;2022-08-19T04:28:12;11.33;;;9.87;;
2706;SDS011;7819;48.046;7.642;2022-08-19T04:33:06;11.50;;;10.40;;
2706;SDS011;7819;48.046;7.642;2022-08-19T04:35:35;12.97;;;11.63;;
2706;SDS011;7819;48.046;7.642;2022-08-19T04:38:01;12.10;;;10.90;;
2706;SDS011;7819;48.046;7.642;2022-08-19T04:40:26;10.10;;;9.10;;
2706;SDS011;7819;48.046;7.642;2022-08-19T04:43:10;11.80;;;10.57;;
2706;SDS011;7819;48.046;7.642;2022-08-19T04:45:39;11.63;;;10.43;;
2706;SDS011;7819;48.046;7.642;2022-08-19T04:48:04;10.83;;;9.77;;
2706;SDS011;7819;48.046;7.642;2022-08-19T04:50:30;12.30;;;11.03;;
2706;SDS011;7819;48.046;7.642;2022-08-19T04:52:55;12.60;;;10.47;;
2706;SDS011;7819;48.046;7.642;2022-08-19T04:55:21;11.23;;;10.13;;
2706;SDS011;7819;48.046;7.642;2022-08-19T04:57:46;12.97;;;10.63;;
2706;SDS011;7819;48.046;7.642;2022-08-19T05:00:11;11.97;;;10.70;;
2706;SDS011;7819;48.046;7.642;2022-08-19T05:02:37;15.63;;;10.67;;
2706;SDS011;7819;48.046;7.642;2022-08-19T05:05:02;10.57;;;9.57;;
2706;SDS011;7819;48.046;7.642;2022-08-19T05:07:28;11.50;;;10.03;;
2706;SDS011;7819;48.046;7.642;2022-08-19T05:09:54;12.70;;;11.40;;
2706;SDS011;7819;48.046;7.642;2022-08-19T05:12:20;12.03;;;10.77;;
2706;SDS011;7819;48.046;7.642;2022-08-19T05:14:45;13.43;;;11.20;;
2706;SDS011;7819;48.046;7.642;2022-08-19T05:17:11;11.83;;;10.40;;
2706;SDS011;7819;48.046;7.642;2022-08-19T05:19:37;11.80;;;10.60;;
2706;SDS011;7819;48.046;7.642;2022-08-19T05:22:21;12.10;;;11.03;;
2706;SDS011;7819;48.046;7.642;2022-08-19T05:25:07;12.00;;;10.80;;
2706;SDS011;7819;48.046;7.642;2022-08-19T05:27:32;12.43;;;11.13;;
2706;SDS011;7819;48.046;7.642;2022-08-19T05:29:58;11.80;;;10.60;;
2706;SDS011;7819;48.046;7.642;2022-08-19T05:32:24;11.87;;;10.40;;
2706;SDS011;7819;48.046;7.642;2022-08-19T05:34:49;11.20;;;10.10;;
2706;SDS011;7819;48.046;7.642;2022-08-19T05:37:14;12.30;;;10.53;;
2706;SDS011;7819;48.046;7.642;2022-08-19T05:39:39;11.67;;;10.33;;
2706;SDS011;7819;48.046;7.642;2022-08-19T05:42:06;12.23;;;11.03;;
2706;SDS011;7819;48.046;7.642;2022-08-19T05:44:33;11.87;;;10.70;;
2706;SDS011;7819;48.046;7.642;2022-08-19T05:46:59;11.00;;;9.90;;
2706;SDS011;7819;48.046;7.642;2022-08-19T05:49:25;11.27;;;10.17;;
2706;SDS011;7819;48.046;7.642;2022-08-19T05:51:50;11.70;;;10.50;;
2706;SDS011;7819;48.046;7.642;2022-08-19T05:54:16;10.93;;;9.83;;
2706;SDS011;7819;48.046;7.642;2022-08-19T05:56:41;11.27;;;9.80;;
2706;SDS011;7819;48.046;7.642;2022-08-19T05:59:07;11.53;;;9.70;;
2706;SDS011;7819;48.046;7.642;2022-08-19T06:01:33;12.53;;;10.60;;
2706;SDS011;7819;48.046;7.642;2022-08-19T06:03:59;10.70;;;9.50;;
2706;SDS011;7819;48.046;7.642;2022-08-19T06:06:24;10.90;;;9.33;;
2706;SDS011;7819;48.046;7.642;2022-08-19T06:08:49;10.53;;;9.43;;
2706;SDS011;7819;48.046;7.642;2022-08-19T06:11:18;11.00;;;9.90;;
2706;SDS011;7819;48.046;7.642;2022-08-19T06:13:44;11.17;;;9.60;;
2706;SDS011;7819;48.046;7.642;2022-08-19T06:16:12;12.03;;;9.57;;
2706;SDS011;7819;48.046;7.642;2022-08-19T06:18:37;12.40;;;10.27;;
2706;SDS011;7819;48.046;7.642;2022-08-19T06:21:02;12.67;;;11.57;;
2706;SDS011;7819;48.046;7.642;2022-08-19T06:23:29;10.17;;;8.80;;
2706;SDS011;7819;48.046;7.642;2022-08-19T06:25:54;10.67;;;9.43;;
2706;SDS011;7819;48.046;7.642;2022-08-19T06:28:19;10.63;;;9.37;;
2706;SDS011;7819;48.046;7.642;2022-08-19T06:30:45;11.73;;;10.30;;
2706;SDS011;7819;48.046;7.642;2022-08-19T06:33:10;10.27;;;9.33;;
2706;SDS011;7819;48.046;7.642;2022-08-19T06:35:39;10.30;;;9.30;;
2706;SDS011;7819;48.046;7.642;2022-08-19T06:38:04;10.27;;;9.27;;
2706;SDS011;7819;48.046;7.642;2022-08-19T06:40:30;10.93;;;9.87;;
2706;SDS011;7819;48.046;7.642;2022-08-19T06:42:55;10.77;;;9.70;;
2706;SDS011;7819;48.046;7.642;2022-08-19T06:45:21;11.90;;;10.73;;
2706;SDS011;7819;48.046;7.642;2022-08-19T06:47:47;10.27;;;9.13;;
2706;SDS011;7819;48.046;7.642;2022-08-19T06:50:13;9.90;;;8.90;;
2706;SDS011;7819;48.046;7.642;2022-08-19T06:52:39;10.27;;;9.27;;
2706;SDS011;7819;48.046;7.642;2022-08-19T06:55:04;11.47;;;10.47;;
2706;SDS011;7819;48.046;7.642;2022-08-19T06:57:29;10.00;;;9.00;;
2706;SDS011;7819;48.046;7.642;2022-08-19T06:59:57;10.50;;;9.40;;
2706;SDS011;7819;48.046;7.642;2022-08-19T07:02:22;10.37;;;9.33;;
2706;SDS011;7819;48.046;7.642;2022-08-19T07:04:51;11.37;;;10.00;;
2706;SDS011;7819;48.046;7.642;2022-08-19T07:07:16;14.63;;;11.70;;
2706;SDS011;7819;48.046;7.642;2022-08-19T07:09:42;11.50;;;10.43;;
2706;SDS011;7819;48.046;7.642;2022-08-19T07:12:08;11.13;;;10.13;;
2706;SDS011;7819;48.046;7.642;2022-08-19T07:14:34;10.80;;;9.73;;
2706;SDS011;7819;48.046;7.642;2022-08-19T07:17:02;11.87;;;10.63;;
2706;SDS011;7819;48.046;7.642;2022-08-19T07:19:28;10.83;;;9.77;;
2706;SDS011;7819;48.046;7.642;2022-08-19T07:21:53;10.80;;;9.80;;
2706;SDS011;7819;48.046;7.642;2022-08-19T07:24:20;14.27;;;10.33;;
2706;SDS011;7819;48.046;7.642;2022-08-19T07:26:49;10.73;;;9.70;;
2706;SDS011;7819;48.046;7.642;2022-08-19T07:29:16;12.20;;;11.10;;
2706;SDS011;7819;48.046;7.642;2022-08-19T07:31:41;12.83;;;11.50;;
2706;SDS011;7819;48.046;7.642;2022-08-19T07:34:08;10.63;;;9.57;;
2706;SDS011;7819;48.046;7.642;2022-08-19T07:36:35;10.70;;;9.67;;
2706;SDS011;7819;48.046;7.642;2022-08-19T07:39:02;14.37;;;11.13;;
2706;SDS011;7819;48.046;7.642;2022-08-19T07:41:29;12.70;;;11.50;;
2706;SDS011;7819;48.046;7.642;2022-08-19T07:43:55;12.40;;;8.67;;
2706;SDS011;7819;48.046;7.642;2022-08-19T07:46:20;12.47;;;11.20;;
2706;SDS011;7819;48.046;7.642;2022-08-19T07:48:46;11.10;;;9.70;;
2706;SDS011;7819;48.046;7.642;2022-08-19T07:51:13;11.60;;;10.37;;
2706;SDS011;7819;48.046;7.642;2022-08-19T07:53:38;11.30;;;10.20;;
2706;SDS011;7819;48.046;7.642;2022-08-19T07:56:04;14.07;;;12.13;;
2706;SDS011;7819;48.046;7.642;2022-08-19T07:58:34;12.83;;;11.53;;
2706;SDS011;7819;48.046;7.642;2022-08-19T08:00:59;12.40;;;9.93;;
2706;SDS011;7819;48.046;7.642;2022-08-19T08:03:25;13.50;;;12.13;;
2706;SDS011;7819;48.046;7.642;2022-08-19T08:06:11;13.90;;;12.27;;
2706;SDS011;7819;48.046;7.642;2022-08-19T08:08:55;12.60;;;11.30;;
2706;SDS011;7819;48.046;7.642;2022-08-19T08:11:40;12.33;;;11.13;;
2706;SDS011;7819;48.046;7.642;2022-08-19T08:14:06;13.97;;;12.57;;
2706;SDS011;7819;48.046;7.642;2022-08-19T08:16:38;13.67;;;12.17;;
2706;SDS011;7819;48.046;7.642;2022-08-19T08:19:04;13.67;;;12.27;;
2706;SDS011;7819;48.046;7.642;2022-08-19T08:21:30;14.17;;;12.73;;
2706;SDS011;7819;48.046;7.642;2022-08-19T08:23:55;12.93;;;11.63;;
2706;SDS011;7819;48.046;7.642;2022-08-19T08:26:20;13.93;;;12.43;;
2706;SDS011;7819;48.046;7.642;2022-08-19T08:28:45;13.20;;;11.90;;
2706;SDS011;7819;48.046;7.642;2022-08-19T08:31:12;15.80;;;14.20;;
2706;SDS011;7819;48.046;7.642;2022-08-19T08:33:37;12.60;;;11.47;;
2706;SDS011;7819;48.046;7.642;2022-08-19T08:36:06;14.63;;;13.17;;
2706;SDS011;7819;48.046;7.642;2022-08-19T08:38:31;12.67;;;11.40;;
2706;SDS011;7819;48.046;7.642;2022-08-19T08:40:58;15.03;;;13.43;;
2706;SDS011;7819;48.046;7.642;2022-08-19T08:43:29;14.00;;;12.57;;
2706;SDS011;7819;48.046;7.642;2022-08-19T08:46:05;14.57;;;13.07;;
2706;SDS011;7819;48.046;7.642;2022-08-19T08:48:35;13.63;;;12.10;;
2706;SDS011;7819;48.046;7.642;2022-08-19T08:51:03;13.73;;;12.43;;
2706;SDS011;7819;48.046;7.642;2022-08-19T08:53:29;13.10;;;11.87;;
2706;SDS011;7819;48.046;7.642;2022-08-19T08:55:56;15.20;;;12.30;;
2706;SDS011;7819;48.046;7.642;2022-08-19T08:58:26;19.00;;;14.67;;
2706;SDS011;7819;48.046;7.642;2022-08-19T09:00:52;17.33;;;13.93;;
2706;SDS011;7819;48.046;7.642;2022-08-19T09:03:21;13.00;;;11.70;;
2706;SDS011;7819;48.046;7.642;2022-08-19T09:08:18;13.93;;;12.53;;
2706;SDS011;7819;48.046;7.642;2022-08-19T09:10:52;14.87;;;13.27;;
2706;SDS011;7819;48.046;7.642;2022-08-19T09:13:42;16.47;;;13.53;;
2706;SDS011;7819;48.046;7.642;2022-08-19T09:16:11;15.00;;;13.30;;
2706;SDS011;7819;48.046;7.642;2022-08-19T09:18:46;18.20;;;15.43;;
2706;SDS011;7819;48.046;7.642;2022-08-19T09:21:12;14.60;;;13.10;;
2706;SDS011;7819;48.046;7.642;2022-08-19T09:23:37;17.50;;;14.73;;
2706;SDS011;7819;48.046;7.642;2022-08-19T09:26:07;15.70;;;14.10;;
2706;SDS011;7819;48.046;7.642;2022-08-19T09:28:33;14.70;;;12.57;;
2706;SDS011;7819;48.046;7.642;2022-08-19T09:30:58;14.57;;;12.30;;
2706;SDS011;7819;48.046;7.642;2022-08-19T09:33:23;15.17;;;13.57;;
2706;SDS011;7819;48.046;7.642;2022-08-19T09:35:48;19.00;;;13.90;;
2706;SDS011;7819;48.046;7.642;2022-08-19T09:38:13;16.73;;;14.57;;
2706;SDS011;7819;48.046;7.642;2022-08-19T09:40:39;16.33;;;14.63;;
2706;SDS011;7819;48.046;7.642;2022-08-19T09:43:04;16.60;;;13.90;;
2706;SDS011;7819;48.046;7.642;2022-08-19T09:45:30;17.70;;;13.47;;
2706;SDS011;7819;48.046;7.642;2022-08-19T09:47:55;16.03;;;14.43;;
2706;SDS011;7819;48.046;7.642;2022-08-19T09:50:22;17.20;;;14.83;;
2706;SDS011;7819;48.046;7.642;2022-08-19T09:52:47;15.70;;;14.10;;
2706;SDS011;7819;48.046;7.642;2022-08-19T09:55:12;16.63;;;15.07;;
2706;SDS011;7819;48.046;7.642;2022-08-19T09:57:37;15.67;;;14.03;;
2706;SDS011;7819;48.046;7.642;2022-08-19T10:00:04;17.70;;;14.70;;
2706;SDS011;7819;48.046;7.642;2022-08-19T10:02:30;16.13;;;14.43;;
2706;SDS011;7819;48.046;7.642;2022-08-19T10:04:55;15.30;;;13.73;;
2706;SDS011;7819;48.046;7.642;2022-08-19T10:07:39;16.70;;;13.17;;
2706;SDS011;7819;48.046;7.642;2022-08-19T10:10:04;15.13;;;13.53;;
2706;SDS011;7819;48.046;7.642;2022-08-19T10:12:31;18.17;;;15.17;;
2706;SDS011;7819;48.046;7.642;2022-08-19T10:14:56;14.23;;;12.60;;
2706;SDS011;7819;48.046;7.642;2022-08-19T10:17:21;15.30;;;13.67;;
2706;SDS011;7819;48.046;7.642;2022-08-19T10:19:46;18.43;;;14.10;;
2706;SDS011;7819;48.046;7.642;2022-08-19T10:22:12;14.27;;;12.83;;
2706;SDS011;7819;48.046;7.642;2022-08-19T10:24:38;15.37;;;13.63;;
2706;SDS011;7819;48.046;7.642;2022-08-19T10:27:03;16.07;;;14.03;;
2706;SDS011;7819;48.046;7.642;2022-08-19T10:29:30;14.20;;;12.47;;
2706;SDS011;7819;48.046;7.642;2022-08-19T10:31:56;16.97;;;14.70;;
2706;SDS011;7819;48.046;7.642;2022-08-19T10:34:22;16.17;;;14.37;;
2706;SDS011;7819;48.046;7.642;2022-08-19T10:36:47;18.37;;;14.87;;
2706;SDS011;7819;48.046;7.642;2022-08-19T10:39:13;14.87;;;13.37;;
2706;SDS011;7819;48.046;7.642;2022-08-19T10:41:39;13.43;;;12.03;;
2706;SDS011;7819;48.046;7.642;2022-08-19T10:44:06;16.63;;;14.90;;
2706;SDS011;7819;48.046;7.642;2022-08-19T10:46:32;15.93;;;14.33;;
2706;SDS011;7819;48.046;7.642;2022-08-19T10:48:58;15.00;;;13.50;;
2706;SDS011;7819;48.046;7.642;2022-08-19T10:51:24;16.33;;;13.97;;
2706;SDS011;7819;48.046;7.642;2022-08-19T10:54:08;16.17;;;14.60;;
2706;SDS011;7819;48.046;7.642;2022-08-19T10:56:33;15.20;;;13.60;;
2706;SDS011;7819;48.046;7.642;2022-08-19T10:59:17;16.57;;;14.87;;
2706;SDS011;7819;48.046;7.642;2022-08-19T11:01:43;16.00;;;13.50;;
2706;SDS011;7819;48.046;7.642;2022-08-19T11:04:09;15.87;;;13.20;;
2706;SDS011;7819;48.046;7.642;2022-08-19T11:06:38;15.33;;;13.70;;
2706;SDS011;7819;48.046;7.642;2022-08-19T11:09:04;17.00;;;13.27;;
2706;SDS011;7819;48.046;7.642;2022-08-19T11:11:29;17.37;;;15.43;;
2706;SDS011;7819;48.046;7.642;2022-08-19T11:13:55;17.47;;;15.67;;
2706;SDS011;7819;48.046;7.642;2022-08-19T11:16:21;15.83;;;14.27;;
2706;SDS011;7819;48.046;7.642;2022-08-19T11:18:51;17.47;;;14.50;;
2706;SDS011;7819;48.046;7.642;2022-08-19T11:21:19;16.47;;;14.73;;
2706;SDS011;7819;48.046;7.642;2022-08-19T11:23:45;16.60;;;14.63;;
2706;SDS011;7819;48.046;7.642;2022-08-19T11:26:11;16.30;;;14.70;;
2706;SDS011;7819;48.046;7.642;2022-08-19T11:28:37;16.03;;;14.43;;
2706;SDS011;7819;48.046;7.642;2022-08-19T11:31:03;18.43;;;15.20;;
2706;SDS011;7819;48.046;7.642;2022-08-19T11:33:29;15.33;;;13.73;;
2706;SDS011;7819;48.046;7.642;2022-08-19T11:35:56;21.50;;;14.70;;
2706;SDS011;7819;48.046;7.642;2022-08-19T11:38:21;17.63;;;14.10;;
2706;SDS011;7819;48.046;7.642;2022-08-19T11:40:53;16.53;;;14.43;;
2706;SDS011;7819;48.046;7.642;2022-08-19T11:43:18;16.03;;;14.40;;
2706;SDS011;7819;48.046;7.642;2022-08-19T11:45:43;16.00;;;14.43;;
2706;SDS011;7819;48.046;7.642;2022-08-19T11:48:09;17.13;;;15.43;;
2706;SDS011;7819;48.046;7.642;2022-08-19T11:50:34;16.20;;;14.33;;
2706;SDS011;7819;48.046;7.642;2022-08-19T11:53:00;15.37;;;13.93;;
2706;SDS011;7819;48.046;7.642;2022-08-19T11:55:25;17.10;;;15.30;;
2706;SDS011;7819;48.046;7.642;2022-08-19T11:57:51;18.00;;;15.63;;
2706;SDS011;7819;48.046;7.642;2022-08-19T12:00:16;15.43;;;13.90;;
2706;SDS011;7819;48.046;7.642;2022-08-19T12:02:41;14.90;;;13.37;;
2706;SDS011;7819;48.046;7.642;2022-08-19T12:05:07;16.00;;;14.40;;
2706;SDS011;7819;48.046;7.642;2022-08-19T12:07:33;15.80;;;14.20;;
2706;SDS011;7819;48.046;7.642;2022-08-19T12:09:58;16.63;;;14.83;;
2706;SDS011;7819;48.046;7.642;2022-08-19T12:12:24;16.80;;;15.20;;
2706;SDS011;7819;48.046;7.642;2022-08-19T12:14:49;16.10;;;14.40;;
2706;SDS011;7819;48.046;7.642;2022-08-19T12:17:21;14.37;;;12.87;;
2706;SDS011;7819;48.046;7.642;2022-08-19T12:19:46;17.30;;;15.40;;
2706;SDS011;7819;48.046;7.642;2022-08-19T12:22:11;16.83;;;13.50;;
2706;SDS011;7819;48.046;7.642;2022-08-19T12:24:37;19.37;;;15.33;;
2706;SDS011;7819;48.046;7.642;2022-08-19T12:27:02;15.93;;;14.33;;
2706;SDS011;7819;48.046;7.642;2022-08-19T12:29:28;17.40;;;15.70;;
2706;SDS011;7819;48.046;7.642;2022-08-19T12:31:53;17.23;;;15.53;;
2706;SDS011;7819;48.046;7.642;2022-08-19T12:34:19;17.83;;;15.70;;
2706;SDS011;7819;48.046;7.642;2022-08-19T12:36:45;18.13;;;16.27;;
2706;SDS011;7819;48.046;7.642;2022-08-19T12:39:10;21.00;;;17.23;;
2706;SDS011;7819;48.046;7.642;2022-08-19T12:41:35;16.70;;;15.10;;
2706;SDS011;7819;48.046;7.642;2022-08-19T12:44:01;17.33;;;15.63;;
2706;SDS011;7819;48.046;7.642;2022-08-19T12:46:26;17.77;;;16.07;;
2706;SDS011;7819;48.046;7.642;2022-08-19T12:48:51;18.47;;;16.67;;
2706;SDS011;7819;48.046;7.642;2022-08-19T12:51:17;17.73;;;14.80;;
2706;SDS011;7819;48.046;7.642;2022-08-19T12:53:44;17.63;;;15.83;;
2706;SDS011;7819;48.046;7.642;2022-08-19T12:56:10;17.43;;;15.83;;
2706;SDS011;7819;48.046;7.642;2022-08-19T12:58:36;15.40;;;14.00;;
2706;SDS011;7819;48.046;7.642;2022-08-19T13:01:08;12.90;;;11.70;;
2706;SDS011;7819;48.046;7.642;2022-08-19T13:03:33;14.67;;;13.27;;
2706;SDS011;7819;48.046;7.642;2022-08-19T13:05:58;14.03;;;12.77;;
2706;SDS011;7819;48.046;7.642;2022-08-19T13:08:24;13.93;;;12.70;;
2706;SDS011;7819;48.046;7.642;2022-08-19T13:10:49;12.30;;;11.20;;
2706;SDS011;7819;48.046;7.642;2022-08-19T13:13:14;13.93;;;12.67;;
2706;SDS011;7819;48.046;7.642;2022-08-19T13:15:40;14.00;;;12.70;;
2706;SDS011;7819;48.046;7.642;2022-08-19T13:18:06;14.93;;;13.53;;
2706;SDS011;7819;48.046;7.642;2022-08-19T13:20:31;15.20;;;13.80;;
2706;SDS011;7819;48.046;7.642;2022-08-19T13:22:56;13.93;;;12.73;;
2706;SDS011;7819;48.046;7.642;2022-08-19T13:25:22;14.93;;;13.47;;
2706;SDS011;7819;48.046;7.642;2022-08-19T13:27:47;12.80;;;11.70;;
2706;SDS011;7819;48.046;7.642;2022-08-19T13:30:13;11.97;;;10.90;;
2706;SDS011;7819;48.046;7.642;2022-08-19T13:32:57;12.80;;;11.60;;
2706;SDS011;7819;48.046;7.642;2022-08-19T13:35:42;13.13;;;11.93;;
2706;SDS011;7819;48.046;7.642;2022-08-19T13:38:08;13.47;;;12.17;;
2706;SDS011;7819;48.046;7.642;2022-08-19T13:40:34;16.17;;;14.63;;
2706;SDS011;7819;48.046;7.642;2022-08-19T13:43:00;13.20;;;12.00;;
2706;SDS011;7819;48.046;7.642;2022-08-19T13:45:27;14.17;;;12.97;;
2706;SDS011;7819;48.046;7.642;2022-08-19T13:47:53;19.00;;;13.53;;
2706;SDS011;7819;48.046;7.642;2022-08-19T13:50:19;12.90;;;11.70;;
2706;SDS011;7819;48.046;7.642;2022-08-19T13:52:45;14.10;;;12.80;;
2706;SDS011;7819;48.046;7.642;2022-08-19T13:55:12;12.53;;;11.43;;
2706;SDS011;7819;48.046;7.642;2022-08-19T13:57:37;12.60;;;11.40;;
2706;SDS011;7819;48.046;7.642;2022-08-19T14:00:10;11.87;;;10.80;;
2706;SDS011;7819;48.046;7.642;2022-08-19T14:02:39;13.23;;;12.00;;
2706;SDS011;7819;48.046;7.642;2022-08-19T14:05:06;13.57;;;12.27;;
2706;SDS011;7819;48.046;7.642;2022-08-19T14:07:31;13.07;;;11.73;;
2706;SDS011;7819;48.046;7.642;2022-08-19T14:09:56;12.10;;;10.97;;
2706;SDS011;7819;48.046;7.642;2022-08-19T14:12:22;12.20;;;11.10;;
2706;SDS011;7819;48.046;7.642;2022-08-19T14:14:47;12.10;;;10.97;;
2706;SDS011;7819;48.046;7.642;2022-08-19T14:17:13;13.03;;;11.30;;
2706;SDS011;7819;48.046;7.642;2022-08-19T14:19:38;12.50;;;11.33;;
2706;SDS011;7819;48.046;7.642;2022-08-19T14:22:03;12.68;;;11.45;;
2706;SDS011;7819;48.046;7.642;2022-08-19T14:24:29;13.47;;;11.93;;
2706;SDS011;7819;48.046;7.642;2022-08-19T14:26:54;13.40;;;12.00;;
2706;SDS011;7819;48.046;7.642;2022-08-19T14:29:19;13.17;;;11.97;;
2706;SDS011;7819;48.046;7.642;2022-08-19T14:31:44;14.07;;;12.67;;
2706;SDS011;7819;48.046;7.642;2022-08-19T14:34:10;13.70;;;12.50;;
2706;SDS011;7819;48.046;7.642;2022-08-19T14:36:35;13.63;;;12.33;;
2706;SDS011;7819;48.046;7.642;2022-08-19T14:39:01;12.97;;;11.67;;
2706;SDS011;7819;48.046;7.642;2022-08-19T14:41:26;14.50;;;13.10;;
2706;SDS011;7819;48.046;7.642;2022-08-19T14:43:52;13.73;;;12.33;;
2706;SDS011;7819;48.046;7.642;2022-08-19T14:46:19;13.87;;;11.73;;
2706;SDS011;7819;48.046;7.642;2022-08-19T14:48:45;13.80;;;12.50;;
2706;SDS011;7819;48.046;7.642;2022-08-19T14:51:11;15.30;;;13.77;;
2706;SDS011;7819;48.046;7.642;2022-08-19T14:53:36;15.07;;;13.67;;